sensor_id;sensor_type;location;lat;lon;timestamp;temperature;humidity
12720;DHT22;6424;48.520;11.228;2024-02-26T00:01:32;3.10;99.90
12720;DHT22;6424;48.520;11.228;2024-02-26T00:04:17;3.00;99.90
12720;DHT22;6424;48.520;11.228;2024-02-26T00:07:02;3.00;99.90
12720;DHT22;6424;48.520;11.228;2024-02-26T00:09:46;3.00;99.90
12720;DHT22;6424;48.520;11.228;2024-02-26T00:12:30;2.90;99.90
12720;DHT22;6424;48.520;11.228;2024-02-26T00:15:15;2.90;99.90
12720;DHT22;6424;48.520;11.228;2024-02-26T00:17:59;2.80;99.90
12720;DHT22;6424;48.520;11.228;2024-02-26T00:20:43;2.80;99.90
12720;DHT22;6424;48.520;11.228;2024-02-26T00:23:28;2.80;99.90
12720;DHT22;6424;48.520;11.228;2024-02-26T00:26:13;2.70;99.90
12720;DHT22;6424;48.520;11.228;2024-02-26T00:28:59;2.60;99.90
12720;DHT22;6424;48.520;11.228;2024-02-26T00:31:43;2.50;99.90
12720;DHT22;6424;48.520;11.228;2024-02-26T00:34:28;2.50;99.90
12720;DHT22;6424;48.520;11.228;2024-02-26T00:37:13;2.40;99.90
12720;DHT22;6424;48.520;11.228;2024-02-26T00:39:57;2.30;99.90
12720;DHT22;6424;48.520;11.228;2024-02-26T00:42:41;2.30;99.90
12720;DHT22;6424;48.520;11.228;2024-02-26T00:45:30;2.30;99.90
12720;DHT22;6424;48.520;11.228;2024-02-26T00:48:16;2.20;99.90
12720;DHT22;6424;48.520;11.228;2024-02-26T00:51:00;2.20;99.90
12720;DHT22;6424;48.520;11.228;2024-02-26T00:53:45;2.20;99.90
12720;DHT22;6424;48.520;11.228;2024-02-26T00:56:29;2.20;99.90
12720;DHT22;6424;48.520;11.228;2024-02-26T00:59:14;2.10;99.90
12720;DHT22;6424;48.520;11.228;2024-02-26T01:01:58;2.10;99.90
12720;DHT22;6424;48.520;11.228;2024-02-26T01:04:43;2.00;99.90
12720;DHT22;6424;48.520;11.228;2024-02-26T01:07:28;2.00;99.90
12720;DHT22;6424;48.520;11.228;2024-02-26T01:10:12;2.00;99.90
12720;DHT22;6424;48.520;11.228;2024-02-26T01:12:56;1.90;99.90
12720;DHT22;6424;48.520;11.228;2024-02-26T01:15:41;1.90;99.90
12720;DHT22;6424;48.520;11.228;2024-02-26T01:18:28;1.90;99.90
12720;DHT22;6424;48.520;11.228;2024-02-26T01:21:12;1.90;99.90
12720;DHT22;6424;48.520;11.228;2024-02-26T01:23:57;1.90;99.90
12720;DHT22;6424;48.520;11.228;2024-02-26T01:26:41;1.90;99.90
12720;DHT22;6424;48.520;11.228;2024-02-26T01:29:25;1.90;99.90
12720;DHT22;6424;48.520;11.228;2024-02-26T01:32:10;1.90;99.90
12720;DHT22;6424;48.520;11.228;2024-02-26T01:34:54;1.90;99.90
12720;DHT22;6424;48.520;11.228;2024-02-26T01:37:39;1.90;99.90
12720;DHT22;6424;48.520;11.228;2024-02-26T01:40:27;1.90;99.90
12720;DHT22;6424;48.520;11.228;2024-02-26T01:43:11;1.90;99.90
12720;DHT22;6424;48.520;11.228;2024-02-26T01:45:55;1.80;99.90
12720;DHT22;6424;48.520;11.228;2024-02-26T01:48:44;1.80;99.90
12720;DHT22;6424;48.520;11.228;2024-02-26T01:51:30;1.70;99.90
12720;DHT22;6424;48.520;11.228;2024-02-26T01:54:16;1.70;99.90
12720;DHT22;6424;48.520;11.228;2024-02-26T01:57:01;1.70;99.90
12720;DHT22;6424;48.520;11.228;2024-02-26T01:59:46;1.60;99.90
12720;DHT22;6424;48.520;11.228;2024-02-26T02:02:31;1.60;99.90
12720;DHT22;6424;48.520;11.228;2024-02-26T02:05:16;1.60;99.90
12720;DHT22;6424;48.520;11.228;2024-02-26T02:08:04;1.60;99.90
12720;DHT22;6424;48.520;11.228;2024-02-26T02:10:49;1.70;99.90
12720;DHT22;6424;48.520;11.228;2024-02-26T02:13:34;1.60;99.90
12720;DHT22;6424;48.520;11.228;2024-02-26T02:16:18;1.60;99.90
12720;DHT22;6424;48.520;11.228;2024-02-26T02:19:03;1.60;99.90
12720;DHT22;6424;48.520;11.228;2024-02-26T02:21:47;1.70;99.90
12720;DHT22;6424;48.520;11.228;2024-02-26T02:24:31;1.60;99.90
12720;DHT22;6424;48.520;11.228;2024-02-26T02:27:15;1.60;99.90
12720;DHT22;6424;48.520;11.228;2024-02-26T02:30:00;1.70;99.90
12720;DHT22;6424;48.520;11.228;2024-02-26T02:32:45;1.70;99.90
12720;DHT22;6424;48.520;11.228;2024-02-26T02:35:29;1.70;99.90
12720;DHT22;6424;48.520;11.228;2024-02-26T02:38:14;1.80;99.90
12720;DHT22;6424;48.520;11.228;2024-02-26T02:40:58;1.80;99.90
12720;DHT22;6424;48.520;11.228;2024-02-26T02:43:42;1.80;99.90
12720;DHT22;6424;48.520;11.228;2024-02-26T02:46:26;1.90;99.90
12720;DHT22;6424;48.520;11.228;2024-02-26T02:49:10;1.90;99.90
12720;DHT22;6424;48.520;11.228;2024-02-26T02:51:55;1.90;99.90
12720;DHT22;6424;48.520;11.228;2024-02-26T02:54:42;2.00;99.90
12720;DHT22;6424;48.520;11.228;2024-02-26T02:57:26;2.00;99.90
12720;DHT22;6424;48.520;11.228;2024-02-26T03:00:11;2.00;99.90
12720;DHT22;6424;48.520;11.228;2024-02-26T03:02:56;2.00;99.90
12720;DHT22;6424;48.520;11.228;2024-02-26T03:05:41;2.00;99.90
12720;DHT22;6424;48.520;11.228;2024-02-26T03:08:25;2.00;99.90
12720;DHT22;6424;48.520;11.228;2024-02-26T03:11:13;2.00;99.90
12720;DHT22;6424;48.520;11.228;2024-02-26T03:13:59;2.00;99.90
12720;DHT22;6424;48.520;11.228;2024-02-26T03:16:43;2.00;99.90
12720;DHT22;6424;48.520;11.228;2024-02-26T03:19:27;2.00;99.90
12720;DHT22;6424;48.520;11.228;2024-02-26T03:22:12;2.10;99.90
12720;DHT22;6424;48.520;11.228;2024-02-26T03:24:57;2.10;99.90
12720;DHT22;6424;48.520;11.228;2024-02-26T03:27:41;2.10;99.90
12720;DHT22;6424;48.520;11.228;2024-02-26T03:30:25;2.20;99.90
12720;DHT22;6424;48.520;11.228;2024-02-26T03:33:10;2.20;99.90
12720;DHT22;6424;48.520;11.228;2024-02-26T03:35:54;2.30;99.90
12720;DHT22;6424;48.520;11.228;2024-02-26T03:38:39;2.30;99.90
12720;DHT22;6424;48.520;11.228;2024-02-26T03:41:23;2.30;99.90
12720;DHT22;6424;48.520;11.228;2024-02-26T03:44:07;2.20;99.90
12720;DHT22;6424;48.520;11.228;2024-02-26T03:46:51;2.20;99.90
12720;DHT22;6424;48.520;11.228;2024-02-26T03:49:36;2.10;99.90
12720;DHT22;6424;48.520;11.228;2024-02-26T03:52:20;2.10;99.90
12720;DHT22;6424;48.520;11.228;2024-02-26T03:55:04;2.00;99.90
12720;DHT22;6424;48.520;11.228;2024-02-26T03:57:48;2.00;99.90
12720;DHT22;6424;48.520;11.228;2024-02-26T04:00:33;2.00;99.90
12720;DHT22;6424;48.520;11.228;2024-02-26T04:03:17;1.90;99.90
12720;DHT22;6424;48.520;11.228;2024-02-26T04:06:02;1.90;99.90
12720;DHT22;6424;48.520;11.228;2024-02-26T04:08:47;1.90;99.90
12720;DHT22;6424;48.520;11.228;2024-02-26T04:11:31;1.90;99.90
12720;DHT22;6424;48.520;11.228;2024-02-26T04:14:15;1.90;99.90
12720;DHT22;6424;48.520;11.228;2024-02-26T04:17:00;1.90;99.90
12720;DHT22;6424;48.520;11.228;2024-02-26T04:19:45;1.90;99.90
12720;DHT22;6424;48.520;11.228;2024-02-26T04:22:29;1.90;99.90
12720;DHT22;6424;48.520;11.228;2024-02-26T04:25:13;1.90;99.90
12720;DHT22;6424;48.520;11.228;2024-02-26T04:27:58;1.90;99.90
12720;DHT22;6424;48.520;11.228;2024-02-26T04:30:43;1.90;99.90
12720;DHT22;6424;48.520;11.228;2024-02-26T04:33:27;1.90;99.90
12720;DHT22;6424;48.520;11.228;2024-02-26T04:36:15;1.90;99.90
12720;DHT22;6424;48.520;11.228;2024-02-26T04:39:00;1.80;99.90
12720;DHT22;6424;48.520;11.228;2024-02-26T04:41:44;1.80;99.90
12720;DHT22;6424;48.520;11.228;2024-02-26T04:44:28;1.80;99.90
12720;DHT22;6424;48.520;11.228;2024-02-26T04:47:13;1.80;99.90
12720;DHT22;6424;48.520;11.228;2024-02-26T04:49:58;1.80;99.90
12720;DHT22;6424;48.520;11.228;2024-02-26T04:52:42;1.80;99.90
12720;DHT22;6424;48.520;11.228;2024-02-26T04:55:26;1.80;99.90
12720;DHT22;6424;48.520;11.228;2024-02-26T04:58:10;1.80;99.90
12720;DHT22;6424;48.520;11.228;2024-02-26T05:00:55;1.80;99.90
12720;DHT22;6424;48.520;11.228;2024-02-26T05:03:40;1.80;99.90
12720;DHT22;6424;48.520;11.228;2024-02-26T05:06:24;1.70;99.90
12720;DHT22;6424;48.520;11.228;2024-02-26T05:09:08;1.80;99.90
12720;DHT22;6424;48.520;11.228;2024-02-26T05:11:52;1.80;99.90
12720;DHT22;6424;48.520;11.228;2024-02-26T05:14:37;1.90;99.90
12720;DHT22;6424;48.520;11.228;2024-02-26T05:17:21;1.80;99.90
12720;DHT22;6424;48.520;11.228;2024-02-26T05:20:06;1.80;99.90
12720;DHT22;6424;48.520;11.228;2024-02-26T05:22:52;1.90;99.90
12720;DHT22;6424;48.520;11.228;2024-02-26T05:25:36;1.80;99.90
12720;DHT22;6424;48.520;11.228;2024-02-26T05:28:20;1.70;99.90
12720;DHT22;6424;48.520;11.228;2024-02-26T05:31:05;1.80;99.90
12720;DHT22;6424;48.520;11.228;2024-02-26T05:33:50;1.80;99.90
12720;DHT22;6424;48.520;11.228;2024-02-26T05:36:34;1.70;99.90
12720;DHT22;6424;48.520;11.228;2024-02-26T05:39:18;1.70;99.90
12720;DHT22;6424;48.520;11.228;2024-02-26T05:42:03;1.70;99.90
12720;DHT22;6424;48.520;11.228;2024-02-26T05:44:48;1.70;99.90
12720;DHT22;6424;48.520;11.228;2024-02-26T05:47:35;1.60;99.90
12720;DHT22;6424;48.520;11.228;2024-02-26T05:50:19;1.70;99.90
12720;DHT22;6424;48.520;11.228;2024-02-26T05:53:04;1.60;99.90
12720;DHT22;6424;48.520;11.228;2024-02-26T05:55:48;1.60;99.90
12720;DHT22;6424;48.520;11.228;2024-02-26T05:58:33;1.60;99.90
12720;DHT22;6424;48.520;11.228;2024-02-26T06:01:19;1.60;99.90
12720;DHT22;6424;48.520;11.228;2024-02-26T06:04:04;1.50;99.90
12720;DHT22;6424;48.520;11.228;2024-02-26T06:06:48;1.50;99.90
12720;DHT22;6424;48.520;11.228;2024-02-26T06:09:33;1.50;99.90
12720;DHT22;6424;48.520;11.228;2024-02-26T06:12:17;1.50;99.90
12720;DHT22;6424;48.520;11.228;2024-02-26T06:15:01;1.50;99.90
12720;DHT22;6424;48.520;11.228;2024-02-26T06:17:46;1.50;99.90
12720;DHT22;6424;48.520;11.228;2024-02-26T06:20:31;1.50;99.90
12720;DHT22;6424;48.520;11.228;2024-02-26T06:23:15;1.60;99.90
12720;DHT22;6424;48.520;11.228;2024-02-26T06:25:59;1.60;99.90
12720;DHT22;6424;48.520;11.228;2024-02-26T06:28:43;1.60;99.90
12720;DHT22;6424;48.520;11.228;2024-02-26T06:31:28;1.60;99.90
12720;DHT22;6424;48.520;11.228;2024-02-26T06:34:13;1.70;99.90
12720;DHT22;6424;48.520;11.228;2024-02-26T06:36:57;1.60;99.90
12720;DHT22;6424;48.520;11.228;2024-02-26T06:39:41;1.60;99.90
12720;DHT22;6424;48.520;11.228;2024-02-26T06:42:26;1.70;99.90
12720;DHT22;6424;48.520;11.228;2024-02-26T06:45:10;1.70;99.90
12720;DHT22;6424;48.520;11.228;2024-02-26T06:47:55;1.80;99.90
12720;DHT22;6424;48.520;11.228;2024-02-26T06:50:40;1.90;99.90
12720;DHT22;6424;48.520;11.228;2024-02-26T06:53:25;1.90;99.90
12720;DHT22;6424;48.520;11.228;2024-02-26T06:56:09;1.90;99.90
12720;DHT22;6424;48.520;11.228;2024-02-26T06:58:54;2.00;99.90
12720;DHT22;6424;48.520;11.228;2024-02-26T07:01:41;2.00;99.90
12720;DHT22;6424;48.520;11.228;2024-02-26T07:04:25;2.10;99.90
12720;DHT22;6424;48.520;11.228;2024-02-26T07:07:09;2.10;99.90
12720;DHT22;6424;48.520;11.228;2024-02-26T07:09:55;2.10;99.90
12720;DHT22;6424;48.520;11.228;2024-02-26T07:12:40;2.20;99.90
12720;DHT22;6424;48.520;11.228;2024-02-26T07:15:24;2.20;99.90
12720;DHT22;6424;48.520;11.228;2024-02-26T07:18:08;2.20;99.90
12720;DHT22;6424;48.520;11.228;2024-02-26T07:20:52;2.30;99.90
12720;DHT22;6424;48.520;11.228;2024-02-26T07:23:38;2.40;99.90
12720;DHT22;6424;48.520;11.228;2024-02-26T07:26:22;2.50;99.90
12720;DHT22;6424;48.520;11.228;2024-02-26T07:29:08;2.50;99.90
12720;DHT22;6424;48.520;11.228;2024-02-26T07:31:52;2.70;99.90
12720;DHT22;6424;48.520;11.228;2024-02-26T07:34:36;2.70;99.90
12720;DHT22;6424;48.520;11.228;2024-02-26T07:37:23;2.70;99.90
12720;DHT22;6424;48.520;11.228;2024-02-26T07:40:08;2.70;99.90
12720;DHT22;6424;48.520;11.228;2024-02-26T07:42:52;2.70;99.90
12720;DHT22;6424;48.520;11.228;2024-02-26T07:45:36;2.70;99.90
12720;DHT22;6424;48.520;11.228;2024-02-26T07:48:21;2.80;99.90
12720;DHT22;6424;48.520;11.228;2024-02-26T07:51:05;2.80;99.90
12720;DHT22;6424;48.520;11.228;2024-02-26T07:53:50;2.80;99.90
12720;DHT22;6424;48.520;11.228;2024-02-26T07:56:37;2.80;99.90
12720;DHT22;6424;48.520;11.228;2024-02-26T07:59:22;2.90;99.90
12720;DHT22;6424;48.520;11.228;2024-02-26T08:02:06;2.90;99.90
12720;DHT22;6424;48.520;11.228;2024-02-26T08:04:50;3.00;99.90
12720;DHT22;6424;48.520;11.228;2024-02-26T08:07:34;3.10;99.90
12720;DHT22;6424;48.520;11.228;2024-02-26T08:10:18;3.20;99.90
12720;DHT22;6424;48.520;11.228;2024-02-26T08:13:03;3.30;99.90
12720;DHT22;6424;48.520;11.228;2024-02-26T08:15:50;3.40;99.90
12720;DHT22;6424;48.520;11.228;2024-02-26T08:18:35;3.50;99.90
12720;DHT22;6424;48.520;11.228;2024-02-26T08:21:19;3.70;99.90
12720;DHT22;6424;48.520;11.228;2024-02-26T08:24:04;3.80;99.90
12720;DHT22;6424;48.520;11.228;2024-02-26T08:26:48;4.00;99.90
12720;DHT22;6424;48.520;11.228;2024-02-26T08:29:32;4.10;99.90
12720;DHT22;6424;48.520;11.228;2024-02-26T08:32:16;4.30;99.90
12720;DHT22;6424;48.520;11.228;2024-02-26T08:35:00;4.40;99.90
12720;DHT22;6424;48.520;11.228;2024-02-26T08:37:45;4.60;99.90
12720;DHT22;6424;48.520;11.228;2024-02-26T08:40:30;4.70;99.90
12720;DHT22;6424;48.520;11.228;2024-02-26T08:43:15;4.80;99.90
12720;DHT22;6424;48.520;11.228;2024-02-26T08:45:59;4.70;99.90
12720;DHT22;6424;48.520;11.228;2024-02-26T08:48:43;4.70;99.90
12720;DHT22;6424;48.520;11.228;2024-02-26T08:51:27;4.80;99.90
12720;DHT22;6424;48.520;11.228;2024-02-26T08:54:11;4.90;99.90
12720;DHT22;6424;48.520;11.228;2024-02-26T08:56:56;4.90;99.90
12720;DHT22;6424;48.520;11.228;2024-02-26T08:59:40;4.90;99.90
12720;DHT22;6424;48.520;11.228;2024-02-26T09:02:24;4.80;99.90
12720;DHT22;6424;48.520;11.228;2024-02-26T09:05:08;4.60;99.90
12720;DHT22;6424;48.520;11.228;2024-02-26T09:07:53;4.50;99.90
12720;DHT22;6424;48.520;11.228;2024-02-26T09:10:38;4.40;99.90
12720;DHT22;6424;48.520;11.228;2024-02-26T09:13:23;4.30;99.90
12720;DHT22;6424;48.520;11.228;2024-02-26T09:16:07;4.30;99.90
12720;DHT22;6424;48.520;11.228;2024-02-26T09:18:52;4.20;99.90
12720;DHT22;6424;48.520;11.228;2024-02-26T09:21:37;4.30;99.90
12720;DHT22;6424;48.520;11.228;2024-02-26T09:24:26;4.20;99.90
12720;DHT22;6424;48.520;11.228;2024-02-26T09:27:11;4.30;99.90
12720;DHT22;6424;48.520;11.228;2024-02-26T09:29:55;4.40;99.90
12720;DHT22;6424;48.520;11.228;2024-02-26T09:32:40;4.60;99.90
12720;DHT22;6424;48.520;11.228;2024-02-26T09:35:25;4.70;99.90
12720;DHT22;6424;48.520;11.228;2024-02-26T09:38:10;4.80;99.90
12720;DHT22;6424;48.520;11.228;2024-02-26T09:40:55;4.80;99.90
12720;DHT22;6424;48.520;11.228;2024-02-26T09:43:44;4.80;99.90
12720;DHT22;6424;48.520;11.228;2024-02-26T09:46:30;4.90;99.90
12720;DHT22;6424;48.520;11.228;2024-02-26T09:49:15;5.00;99.90
12720;DHT22;6424;48.520;11.228;2024-02-26T09:52:01;5.10;99.90
12720;DHT22;6424;48.520;11.228;2024-02-26T09:54:48;5.30;99.90
12720;DHT22;6424;48.520;11.228;2024-02-26T09:57:32;5.40;99.90
12720;DHT22;6424;48.520;11.228;2024-02-26T10:00:18;5.40;99.90
12720;DHT22;6424;48.520;11.228;2024-02-26T10:03:09;5.40;99.90
12720;DHT22;6424;48.520;11.228;2024-02-26T10:05:57;5.50;99.90
12720;DHT22;6424;48.520;11.228;2024-02-26T10:08:43;5.60;99.90
12720;DHT22;6424;48.520;11.228;2024-02-26T10:11:28;5.70;99.90
12720;DHT22;6424;48.520;11.228;2024-02-26T10:14:14;5.80;99.90
12720;DHT22;6424;48.520;11.228;2024-02-26T10:17:00;5.90;99.90
12720;DHT22;6424;48.520;11.228;2024-02-26T10:19:47;6.00;99.90
12720;DHT22;6424;48.520;11.228;2024-02-26T10:22:32;6.10;99.90
12720;DHT22;6424;48.520;11.228;2024-02-26T10:25:16;6.10;99.90
12720;DHT22;6424;48.520;11.228;2024-02-26T10:28:02;6.10;99.90
12720;DHT22;6424;48.520;11.228;2024-02-26T10:30:51;6.20;99.90
12720;DHT22;6424;48.520;11.228;2024-02-26T10:33:36;6.20;99.90
12720;DHT22;6424;48.520;11.228;2024-02-26T10:36:21;6.50;99.90
12720;DHT22;6424;48.520;11.228;2024-02-26T10:39:05;6.60;99.90
12720;DHT22;6424;48.520;11.228;2024-02-26T10:41:50;6.70;99.90
12720;DHT22;6424;48.520;11.228;2024-02-26T10:44:34;6.80;99.90
12720;DHT22;6424;48.520;11.228;2024-02-26T10:47:18;7.00;99.90
12720;DHT22;6424;48.520;11.228;2024-02-26T10:50:05;7.10;99.90
12720;DHT22;6424;48.520;11.228;2024-02-26T10:52:49;7.30;99.90
12720;DHT22;6424;48.520;11.228;2024-02-26T10:55:35;7.40;99.90
12720;DHT22;6424;48.520;11.228;2024-02-26T10:58:21;7.50;99.90
12720;DHT22;6424;48.520;11.228;2024-02-26T11:01:07;7.50;99.90
12720;DHT22;6424;48.520;11.228;2024-02-26T11:03:53;7.60;99.90
12720;DHT22;6424;48.520;11.228;2024-02-26T11:06:38;7.60;99.90
12720;DHT22;6424;48.520;11.228;2024-02-26T11:09:23;7.80;99.90
12720;DHT22;6424;48.520;11.228;2024-02-26T11:12:09;7.90;99.90
12720;DHT22;6424;48.520;11.228;2024-02-26T11:14:56;7.80;99.90
12720;DHT22;6424;48.520;11.228;2024-02-26T11:17:42;7.80;99.90
12720;DHT22;6424;48.520;11.228;2024-02-26T11:20:28;7.90;99.90
12720;DHT22;6424;48.520;11.228;2024-02-26T11:23:14;8.00;99.90
12720;DHT22;6424;48.520;11.228;2024-02-26T11:25:59;8.00;99.90
12720;DHT22;6424;48.520;11.228;2024-02-26T11:28:45;8.00;99.90
12720;DHT22;6424;48.520;11.228;2024-02-26T11:31:30;8.10;99.90
12720;DHT22;6424;48.520;11.228;2024-02-26T11:34:15;8.20;99.90
12720;DHT22;6424;48.520;11.228;2024-02-26T11:37:17;8.30;99.90
12720;DHT22;6424;48.520;11.228;2024-02-26T11:40:02;8.40;99.90
12720;DHT22;6424;48.520;11.228;2024-02-26T11:42:47;8.60;99.90
12720;DHT22;6424;48.520;11.228;2024-02-26T11:48:36;8.90;99.90
12720;DHT22;6424;48.520;11.228;2024-02-26T11:51:25;9.00;99.90
12720;DHT22;6424;48.520;11.228;2024-02-26T11:54:10;8.80;99.90
12720;DHT22;6424;48.520;11.228;2024-02-26T11:56:54;8.80;99.90
12720;DHT22;6424;48.520;11.228;2024-02-26T11:59:39;8.90;99.90
12720;DHT22;6424;48.520;11.228;2024-02-26T12:05:31;8.90;99.90
12720;DHT22;6424;48.520;11.228;2024-02-26T12:08:16;8.90;99.90
12720;DHT22;6424;48.520;11.228;2024-02-26T12:11:03;9.10;99.90
12720;DHT22;6424;48.520;11.228;2024-02-26T12:13:48;9.10;99.90
12720;DHT22;6424;48.520;11.228;2024-02-26T12:16:39;9.20;99.90
12720;DHT22;6424;48.520;11.228;2024-02-26T12:19:23;9.20;99.90
12720;DHT22;6424;48.520;11.228;2024-02-26T12:22:08;9.20;99.90
12720;DHT22;6424;48.520;11.228;2024-02-26T12:24:59;9.20;99.90
12720;DHT22;6424;48.520;11.228;2024-02-26T12:27:45;9.30;99.90
12720;DHT22;6424;48.520;11.228;2024-02-26T12:30:30;9.30;99.90
12720;DHT22;6424;48.520;11.228;2024-02-26T12:33:15;9.30;99.90
12720;DHT22;6424;48.520;11.228;2024-02-26T12:35:59;9.60;99.90
12720;DHT22;6424;48.520;11.228;2024-02-26T12:38:44;9.90;99.90
12720;DHT22;6424;48.520;11.228;2024-02-26T12:41:28;10.10;99.90
12720;DHT22;6424;48.520;11.228;2024-02-26T12:44:24;10.30;99.90
12720;DHT22;6424;48.520;11.228;2024-02-26T12:47:09;10.30;99.90
12720;DHT22;6424;48.520;11.228;2024-02-26T12:49:57;10.30;99.90
12720;DHT22;6424;48.520;11.228;2024-02-26T12:52:43;10.30;99.90
12720;DHT22;6424;48.520;11.228;2024-02-26T12:55:28;10.30;99.90
12720;DHT22;6424;48.520;11.228;2024-02-26T12:58:13;10.30;99.90
12720;DHT22;6424;48.520;11.228;2024-02-26T13:00:58;10.30;99.90
12720;DHT22;6424;48.520;11.228;2024-02-26T13:03:43;10.30;99.90
12720;DHT22;6424;48.520;11.228;2024-02-26T13:06:27;10.20;99.90
12720;DHT22;6424;48.520;11.228;2024-02-26T13:09:13;10.20;99.90
12720;DHT22;6424;48.520;11.228;2024-02-26T13:11:58;10.20;99.90
12720;DHT22;6424;48.520;11.228;2024-02-26T13:14:43;10.20;99.90
12720;DHT22;6424;48.520;11.228;2024-02-26T13:17:27;10.20;99.90
12720;DHT22;6424;48.520;11.228;2024-02-26T13:20:13;10.20;99.90
12720;DHT22;6424;48.520;11.228;2024-02-26T13:23:05;10.30;99.90
12720;DHT22;6424;48.520;11.228;2024-02-26T13:25:56;10.30;99.90
12720;DHT22;6424;48.520;11.228;2024-02-26T13:28:41;10.30;99.90
12720;DHT22;6424;48.520;11.228;2024-02-26T13:31:25;10.40;99.90
12720;DHT22;6424;48.520;11.228;2024-02-26T13:34:09;10.40;99.90
12720;DHT22;6424;48.520;11.228;2024-02-26T13:36:54;10.50;99.90
12720;DHT22;6424;48.520;11.228;2024-02-26T13:39:38;10.60;99.90
12720;DHT22;6424;48.520;11.228;2024-02-26T13:42:25;10.60;99.90
12720;DHT22;6424;48.520;11.228;2024-02-26T13:45:09;10.70;99.90
12720;DHT22;6424;48.520;11.228;2024-02-26T13:47:54;10.70;99.90
12720;DHT22;6424;48.520;11.228;2024-02-26T13:50:45;10.60;99.90
12720;DHT22;6424;48.520;11.228;2024-02-26T13:53:29;10.70;99.90
12720;DHT22;6424;48.520;11.228;2024-02-26T13:56:14;10.80;99.90
12720;DHT22;6424;48.520;11.228;2024-02-26T13:58:58;10.80;99.90
12720;DHT22;6424;48.520;11.228;2024-02-26T14:01:43;10.90;99.90
12720;DHT22;6424;48.520;11.228;2024-02-26T14:04:27;10.90;99.90
12720;DHT22;6424;48.520;11.228;2024-02-26T14:07:12;10.80;99.90
12720;DHT22;6424;48.520;11.228;2024-02-26T14:09:56;10.70;99.90
12720;DHT22;6424;48.520;11.228;2024-02-26T14:12:41;10.70;99.90
12720;DHT22;6424;48.520;11.228;2024-02-26T14:15:25;10.60;99.90
12720;DHT22;6424;48.520;11.228;2024-02-26T14:18:10;10.50;99.90
12720;DHT22;6424;48.520;11.228;2024-02-26T14:20:54;10.50;99.90
12720;DHT22;6424;48.520;11.228;2024-02-26T14:23:39;10.40;99.90
12720;DHT22;6424;48.520;11.228;2024-02-26T14:26:24;10.40;99.90
12720;DHT22;6424;48.520;11.228;2024-02-26T14:29:08;10.30;99.90
12720;DHT22;6424;48.520;11.228;2024-02-26T14:31:52;10.30;99.90
12720;DHT22;6424;48.520;11.228;2024-02-26T14:34:36;10.30;99.90
12720;DHT22;6424;48.520;11.228;2024-02-26T14:37:21;10.40;99.90
12720;DHT22;6424;48.520;11.228;2024-02-26T14:40:06;10.40;99.90
12720;DHT22;6424;48.520;11.228;2024-02-26T14:42:52;10.30;99.90
12720;DHT22;6424;48.520;11.228;2024-02-26T14:45:36;10.30;99.90
12720;DHT22;6424;48.520;11.228;2024-02-26T14:48:22;10.20;99.90
12720;DHT22;6424;48.520;11.228;2024-02-26T14:51:06;10.20;99.90
12720;DHT22;6424;48.520;11.228;2024-02-26T14:53:50;10.20;99.90
12720;DHT22;6424;48.520;11.228;2024-02-26T14:56:34;10.10;99.90
12720;DHT22;6424;48.520;11.228;2024-02-26T14:59:19;10.10;99.90
12720;DHT22;6424;48.520;11.228;2024-02-26T15:02:04;10.10;99.90
12720;DHT22;6424;48.520;11.228;2024-02-26T15:04:49;10.10;99.90
12720;DHT22;6424;48.520;11.228;2024-02-26T15:07:33;10.00;99.90
12720;DHT22;6424;48.520;11.228;2024-02-26T15:10:17;10.00;99.90
12720;DHT22;6424;48.520;11.228;2024-02-26T15:13:01;10.00;99.90
12720;DHT22;6424;48.520;11.228;2024-02-26T15:15:46;10.00;99.90
12720;DHT22;6424;48.520;11.228;2024-02-26T15:18:30;10.00;99.90
12720;DHT22;6424;48.520;11.228;2024-02-26T15:21:15;9.90;99.90
12720;DHT22;6424;48.520;11.228;2024-02-26T15:23:59;10.00;99.90
12720;DHT22;6424;48.520;11.228;2024-02-26T15:26:44;10.10;99.90
12720;DHT22;6424;48.520;11.228;2024-02-26T15:29:29;10.00;99.90
12720;DHT22;6424;48.520;11.228;2024-02-26T15:32:13;10.00;99.90
12720;DHT22;6424;48.520;11.228;2024-02-26T15:35:01;9.90;99.90
12720;DHT22;6424;48.520;11.228;2024-02-26T15:37:45;9.80;99.90
12720;DHT22;6424;48.520;11.228;2024-02-26T15:40:29;9.70;99.90
12720;DHT22;6424;48.520;11.228;2024-02-26T15:43:13;9.70;99.90
12720;DHT22;6424;48.520;11.228;2024-02-26T15:46:00;9.60;99.90
12720;DHT22;6424;48.520;11.228;2024-02-26T15:48:44;9.50;99.90
12720;DHT22;6424;48.520;11.228;2024-02-26T15:51:28;9.50;99.90
12720;DHT22;6424;48.520;11.228;2024-02-26T15:54:13;9.50;99.90
12720;DHT22;6424;48.520;11.228;2024-02-26T15:56:57;9.50;99.90
12720;DHT22;6424;48.520;11.228;2024-02-26T15:59:42;9.50;99.90
12720;DHT22;6424;48.520;11.228;2024-02-26T16:02:27;9.50;99.90
12720;DHT22;6424;48.520;11.228;2024-02-26T16:05:11;9.50;99.90
12720;DHT22;6424;48.520;11.228;2024-02-26T16:07:59;9.50;99.90
12720;DHT22;6424;48.520;11.228;2024-02-26T16:10:44;9.40;99.90
12720;DHT22;6424;48.520;11.228;2024-02-26T16:13:29;9.40;99.90
12720;DHT22;6424;48.520;11.228;2024-02-26T16:16:17;9.30;99.90
12720;DHT22;6424;48.520;11.228;2024-02-26T16:19:09;9.30;99.90
12720;DHT22;6424;48.520;11.228;2024-02-26T16:21:54;9.30;99.90
12720;DHT22;6424;48.520;11.228;2024-02-26T16:24:39;9.30;99.90
12720;DHT22;6424;48.520;11.228;2024-02-26T16:27:23;9.20;99.90
12720;DHT22;6424;48.520;11.228;2024-02-26T16:30:09;9.30;99.90
12720;DHT22;6424;48.520;11.228;2024-02-26T16:32:53;9.20;99.90
12720;DHT22;6424;48.520;11.228;2024-02-26T16:35:37;9.20;99.90
12720;DHT22;6424;48.520;11.228;2024-02-26T16:38:21;9.20;99.90
12720;DHT22;6424;48.520;11.228;2024-02-26T16:41:07;9.10;99.90
12720;DHT22;6424;48.520;11.228;2024-02-26T16:43:51;9.10;99.90
12720;DHT22;6424;48.520;11.228;2024-02-26T16:46:35;9.00;99.90
12720;DHT22;6424;48.520;11.228;2024-02-26T16:49:19;9.10;99.90
12720;DHT22;6424;48.520;11.228;2024-02-26T16:52:05;9.00;99.90
12720;DHT22;6424;48.520;11.228;2024-02-26T16:54:49;9.00;99.90
12720;DHT22;6424;48.520;11.228;2024-02-26T16:57:33;9.00;99.90
12720;DHT22;6424;48.520;11.228;2024-02-26T17:00:18;9.00;99.90
12720;DHT22;6424;48.520;11.228;2024-02-26T17:03:03;9.00;99.90
12720;DHT22;6424;48.520;11.228;2024-02-26T17:05:47;9.00;99.90
12720;DHT22;6424;48.520;11.228;2024-02-26T17:08:31;9.00;99.90
12720;DHT22;6424;48.520;11.228;2024-02-26T17:11:17;9.00;99.90
12720;DHT22;6424;48.520;11.228;2024-02-26T17:14:02;9.00;99.90
12720;DHT22;6424;48.520;11.228;2024-02-26T17:16:46;9.00;99.90
12720;DHT22;6424;48.520;11.228;2024-02-26T17:19:30;8.90;99.90
12720;DHT22;6424;48.520;11.228;2024-02-26T17:22:15;8.90;99.90
12720;DHT22;6424;48.520;11.228;2024-02-26T17:25:02;8.80;99.90
12720;DHT22;6424;48.520;11.228;2024-02-26T17:27:46;8.70;99.90
12720;DHT22;6424;48.520;11.228;2024-02-26T17:30:31;8.60;99.90
12720;DHT22;6424;48.520;11.228;2024-02-26T17:33:15;8.60;99.90
12720;DHT22;6424;48.520;11.228;2024-02-26T17:35:59;8.50;99.90
12720;DHT22;6424;48.520;11.228;2024-02-26T17:38:43;8.40;99.90
12720;DHT22;6424;48.520;11.228;2024-02-26T17:41:30;8.50;99.90